Impacts METAR Board INFO
IDs:

KLAX - Los Angeles Intl, CA, US

Updated at: 2144 UTC 24 Feb 2018
Potential Impact None Slight Moderate High
Time24/09Z 24/10Z 24/11Z 24/12Z 24/13Z 24/14Z 24/15Z 24/16Z 24/17Z 24/18Z 24/19Z 24/20Z 24/21Z
VIS10 10 10 10 10 10 10 10 10 10 10 10 10
CIG-- -- -- -- -- -- -- -- -- -- -- -- --
CoverCLRCLRCLRCLRCLRCLRCLRCLRCLRCLRCLRCLRCLR
FltCatVFRVFRVFRVFRVFRVFRVFRVFRVFRVFRVFRVFRVFR
WX--------------------------
WDir1011003000700080270250230240
WSpd6 4 0 3 0 3 0 0 3 3 8 9 13
WGst-- -- -- -- -- -- -- -- -- -- -- -- --
Raw hourly METARs
KLAX 240853Z 01006KT 10SM CLR 10/M08 A3030 RMK AO2 SLP258 T01001078 53010
KLAX 240953Z 11004KT 10SM CLR 08/M07 A3030 RMK AO2 SLP258 T00781072
KLAX 241053Z 00000KT 10SM CLR 07/M07 A3030 RMK AO2 SLP259 T00721067
KLAX 241153Z 30003KT 10SM CLR 08/M07 A3031 RMK AO2 SLP264 T00781067 10106 20067 53006
KLAX 241253Z 00000KT 10SM CLR 07/M08 A3032 RMK AO2 SLP265 T00721078
KLAX 241353Z 07003KT 10SM CLR 06/M07 A3033 RMK AO2 SLP268 T00611072
KLAX 241453Z COR 00000KT 10SM CLR 06/M07 A3034 RMK AO2 SLP273 T00611067 53008 $
KLAX 241553Z 00000KT 10SM CLR 09/M07 A3035 RMK AO2 SLP278 T00891067 $
KLAX 241653Z 08003KT 10SM CLR 11/M08 A3036 RMK AO2 SLP280 T01111078 $
KLAX 241753Z 27003KT 10SM CLR 13/M09 A3035 RMK AO2 SLP276 T01331089 10133 20056 50004 $
KLAX 241853Z 25008KT 10SM CLR 14/M09 A3034 RMK AO2 SLP272 T01441089 $
KLAX 241953Z 23009KT 10SM CLR 15/M04 A3030 RMK AO2 SLP260 T01501039 $
KLAX 242053Z 24013KT 10SM CLR 15/M02 A3027 RMK AO2 SLP251 T01501017 58024